sensor_id;sensor_type;location;lat;lon;timestamp;P1;durP1;ratioP1;P2;durP2;ratioP2
3689;SDS011;1861;50.240;8.596;2023-01-01T00:01:56;122.73;;;61.00;;
3689;SDS011;1861;50.240;8.596;2023-01-01T00:04:24;110.13;;;57.10;;
3689;SDS011;1861;50.240;8.596;2023-01-01T00:06:54;95.07;;;49.77;;
3689;SDS011;1861;50.240;8.596;2023-01-01T00:09:22;98.67;;;49.10;;
3689;SDS011;1861;50.240;8.596;2023-01-01T00:12:08;105.93;;;50.20;;
3689;SDS011;1861;50.240;8.596;2023-01-01T00:14:36;82.80;;;44.10;;
3689;SDS011;1861;50.240;8.596;2023-01-01T00:17:08;79.37;;;38.57;;
3689;SDS011;1861;50.240;8.596;2023-01-01T00:19:36;59.00;;;32.30;;
3689;SDS011;1861;50.240;8.596;2023-01-01T00:22:06;56.60;;;27.77;;
3689;SDS011;1861;50.240;8.596;2023-01-01T00:24:54;58.53;;;26.90;;
3689;SDS011;1861;50.240;8.596;2023-01-01T00:27:22;50.67;;;25.87;;
3689;SDS011;1861;50.240;8.596;2023-01-01T00:29:50;46.70;;;25.83;;
3689;SDS011;1861;50.240;8.596;2023-01-01T00:32:18;41.60;;;25.17;;
3689;SDS011;1861;50.240;8.596;2023-01-01T00:34:48;39.00;;;22.07;;
3689;SDS011;1861;50.240;8.596;2023-01-01T00:37:18;43.30;;;23.50;;
3689;SDS011;1861;50.240;8.596;2023-01-01T00:39:46;41.40;;;24.73;;
3689;SDS011;1861;50.240;8.596;2023-01-01T00:42:14;46.57;;;27.40;;
3689;SDS011;1861;50.240;8.596;2023-01-01T00:44:42;47.43;;;25.80;;
3689;SDS011;1861;50.240;8.596;2023-01-01T00:47:11;36.90;;;22.20;;
3689;SDS011;1861;50.240;8.596;2023-01-01T00:49:39;38.87;;;21.83;;
3689;SDS011;1861;50.240;8.596;2023-01-01T00:52:07;39.07;;;19.70;;
3689;SDS011;1861;50.240;8.596;2023-01-01T00:54:36;32.37;;;18.33;;
3689;SDS011;1861;50.240;8.596;2023-01-01T00:57:04;34.40;;;18.20;;
3689;SDS011;1861;50.240;8.596;2023-01-01T00:59:32;33.27;;;18.20;;
3689;SDS011;1861;50.240;8.596;2023-01-01T01:02:00;33.33;;;17.37;;
3689;SDS011;1861;50.240;8.596;2023-01-01T01:04:29;37.37;;;17.90;;
3689;SDS011;1861;50.240;8.596;2023-01-01T01:06:57;35.17;;;16.33;;
3689;SDS011;1861;50.240;8.596;2023-01-01T01:09:25;28.83;;;15.20;;
3689;SDS011;1861;50.240;8.596;2023-01-01T01:11:54;26.90;;;14.47;;
3689;SDS011;1861;50.240;8.596;2023-01-01T01:14:42;23.53;;;12.80;;
3689;SDS011;1861;50.240;8.596;2023-01-01T01:17:10;22.50;;;12.33;;
3689;SDS011;1861;50.240;8.596;2023-01-01T01:19:38;27.77;;;13.50;;
3689;SDS011;1861;50.240;8.596;2023-01-01T01:22:07;24.10;;;12.97;;
3689;SDS011;1861;50.240;8.596;2023-01-01T01:24:35;28.73;;;12.90;;
3689;SDS011;1861;50.240;8.596;2023-01-01T01:27:04;21.73;;;11.37;;
3689;SDS011;1861;50.240;8.596;2023-01-01T01:29:32;19.90;;;11.60;;
3689;SDS011;1861;50.240;8.596;2023-01-01T01:32:00;20.10;;;11.33;;
3689;SDS011;1861;50.240;8.596;2023-01-01T01:34:28;20.00;;;10.70;;
3689;SDS011;1861;50.240;8.596;2023-01-01T01:36:56;21.23;;;11.40;;
3689;SDS011;1861;50.240;8.596;2023-01-01T01:39:24;16.97;;;10.40;;
3689;SDS011;1861;50.240;8.596;2023-01-01T01:41:52;19.13;;;11.43;;
3689;SDS011;1861;50.240;8.596;2023-01-01T01:47:18;17.87;;;10.17;;
3689;SDS011;1861;50.240;8.596;2023-01-01T01:49:52;16.13;;;10.20;;
3689;SDS011;1861;50.240;8.596;2023-01-01T01:52:23;19.80;;;9.90;;
3689;SDS011;1861;50.240;8.596;2023-01-01T01:54:53;14.63;;;9.93;;
3689;SDS011;1861;50.240;8.596;2023-01-01T01:57:22;17.57;;;9.50;;
3689;SDS011;1861;50.240;8.596;2023-01-01T01:59:52;18.57;;;10.00;;
3689;SDS011;1861;50.240;8.596;2023-01-01T02:02:26;15.27;;;8.47;;
3689;SDS011;1861;50.240;8.596;2023-01-01T02:04:59;14.70;;;8.10;;
3689;SDS011;1861;50.240;8.596;2023-01-01T02:07:27;13.17;;;7.37;;
3689;SDS011;1861;50.240;8.596;2023-01-01T02:09:58;13.10;;;8.33;;
3689;SDS011;1861;50.240;8.596;2023-01-01T02:12:27;18.77;;;9.67;;
3689;SDS011;1861;50.240;8.596;2023-01-01T02:14:57;14.50;;;7.63;;
3689;SDS011;1861;50.240;8.596;2023-01-01T02:17:27;14.83;;;8.00;;
3689;SDS011;1861;50.240;8.596;2023-01-01T02:20:17;13.70;;;7.60;;
3689;SDS011;1861;50.240;8.596;2023-01-01T02:23:07;14.20;;;8.10;;
3689;SDS011;1861;50.240;8.596;2023-01-01T02:26:02;13.17;;;7.97;;
3689;SDS011;1861;50.240;8.596;2023-01-01T02:28:49;10.50;;;6.60;;
3689;SDS011;1861;50.240;8.596;2023-01-01T02:31:25;17.70;;;8.23;;
3689;SDS011;1861;50.240;8.596;2023-01-01T02:33:59;9.23;;;5.87;;
3689;SDS011;1861;50.240;8.596;2023-01-01T02:36:30;12.43;;;7.70;;
3689;SDS011;1861;50.240;8.596;2023-01-01T02:39:01;12.60;;;6.20;;
3689;SDS011;1861;50.240;8.596;2023-01-01T02:41:32;9.73;;;5.60;;
3689;SDS011;1861;50.240;8.596;2023-01-01T02:44:07;8.50;;;5.40;;
3689;SDS011;1861;50.240;8.596;2023-01-01T02:46:37;8.80;;;5.20;;
3689;SDS011;1861;50.240;8.596;2023-01-01T02:49:05;9.07;;;4.70;;
3689;SDS011;1861;50.240;8.596;2023-01-01T02:51:39;8.00;;;5.30;;
3689;SDS011;1861;50.240;8.596;2023-01-01T02:54:19;11.10;;;5.53;;
3689;SDS011;1861;50.240;8.596;2023-01-01T02:56:56;10.63;;;5.63;;
3689;SDS011;1861;50.240;8.596;2023-01-01T02:59:32;9.37;;;5.03;;
3689;SDS011;1861;50.240;8.596;2023-01-01T03:02:35;9.67;;;5.20;;
3689;SDS011;1861;50.240;8.596;2023-01-01T03:05:17;7.73;;;4.87;;
3689;SDS011;1861;50.240;8.596;2023-01-01T03:07:59;7.43;;;4.97;;
3689;SDS011;1861;50.240;8.596;2023-01-01T03:10:35;7.43;;;4.97;;
3689;SDS011;1861;50.240;8.596;2023-01-01T03:13:14;6.67;;;5.50;;
3689;SDS011;1861;50.240;8.596;2023-01-01T03:15:51;7.73;;;5.17;;
3689;SDS011;1861;50.240;8.596;2023-01-01T03:18:27;8.27;;;5.27;;
3689;SDS011;1861;50.240;8.596;2023-01-01T03:21:00;8.37;;;4.70;;
3689;SDS011;1861;50.240;8.596;2023-01-01T03:23:32;7.60;;;4.90;;
3689;SDS011;1861;50.240;8.596;2023-01-01T03:26:04;11.77;;;5.63;;
3689;SDS011;1861;50.240;8.596;2023-01-01T03:28:36;7.33;;;4.77;;
3689;SDS011;1861;50.240;8.596;2023-01-01T03:31:12;9.80;;;5.00;;
3689;SDS011;1861;50.240;8.596;2023-01-01T03:33:45;8.03;;;5.23;;
3689;SDS011;1861;50.240;8.596;2023-01-01T03:36:15;11.40;;;5.60;;
3689;SDS011;1861;50.240;8.596;2023-01-01T03:38:48;8.73;;;5.67;;
3689;SDS011;1861;50.240;8.596;2023-01-01T03:41:20;8.20;;;5.30;;
3689;SDS011;1861;50.240;8.596;2023-01-01T03:43:53;11.20;;;5.77;;
3689;SDS011;1861;50.240;8.596;2023-01-01T03:46:29;13.77;;;5.70;;
3689;SDS011;1861;50.240;8.596;2023-01-01T03:49:01;16.63;;;6.47;;
3689;SDS011;1861;50.240;8.596;2023-01-01T03:51:38;12.20;;;6.50;;
3689;SDS011;1861;50.240;8.596;2023-01-01T03:54:22;11.50;;;6.63;;
3689;SDS011;1861;50.240;8.596;2023-01-01T03:56:58;8.03;;;4.93;;
3689;SDS011;1861;50.240;8.596;2023-01-01T03:59:33;10.17;;;6.00;;
3689;SDS011;1861;50.240;8.596;2023-01-01T04:02:08;10.00;;;5.70;;
3689;SDS011;1861;50.240;8.596;2023-01-01T04:04:40;15.50;;;6.37;;
3689;SDS011;1861;50.240;8.596;2023-01-01T04:07:09;10.13;;;6.30;;
3689;SDS011;1861;50.240;8.596;2023-01-01T04:09:42;10.90;;;6.30;;
3689;SDS011;1861;50.240;8.596;2023-01-01T04:12:16;9.97;;;6.00;;
3689;SDS011;1861;50.240;8.596;2023-01-01T04:14:45;12.70;;;6.37;;
3689;SDS011;1861;50.240;8.596;2023-01-01T04:17:14;10.07;;;5.80;;
3689;SDS011;1861;50.240;8.596;2023-01-01T04:19:42;13.40;;;6.93;;
3689;SDS011;1861;50.240;8.596;2023-01-01T04:22:20;11.23;;;6.70;;
3689;SDS011;1861;50.240;8.596;2023-01-01T04:24:48;9.43;;;5.37;;
3689;SDS011;1861;50.240;8.596;2023-01-01T04:27:16;13.30;;;6.33;;
3689;SDS011;1861;50.240;8.596;2023-01-01T04:29:44;13.47;;;6.17;;
3689;SDS011;1861;50.240;8.596;2023-01-01T04:32:13;11.97;;;6.07;;
3689;SDS011;1861;50.240;8.596;2023-01-01T04:34:42;11.40;;;5.87;;
3689;SDS011;1861;50.240;8.596;2023-01-01T04:37:10;8.70;;;4.87;;
3689;SDS011;1861;50.240;8.596;2023-01-01T04:39:39;11.30;;;5.70;;
3689;SDS011;1861;50.240;8.596;2023-01-01T04:42:07;8.83;;;5.20;;
3689;SDS011;1861;50.240;8.596;2023-01-01T04:44:35;8.80;;;4.80;;
3689;SDS011;1861;50.240;8.596;2023-01-01T04:47:04;8.73;;;4.70;;
3689;SDS011;1861;50.240;8.596;2023-01-01T04:49:33;7.37;;;4.17;;
3689;SDS011;1861;50.240;8.596;2023-01-01T04:52:01;11.00;;;4.90;;
3689;SDS011;1861;50.240;8.596;2023-01-01T04:54:29;7.33;;;4.60;;
3689;SDS011;1861;50.240;8.596;2023-01-01T04:56:57;13.90;;;5.10;;
3689;SDS011;1861;50.240;8.596;2023-01-01T04:59:25;7.87;;;5.07;;
3689;SDS011;1861;50.240;8.596;2023-01-01T05:01:55;6.67;;;4.67;;
3689;SDS011;1861;50.240;8.596;2023-01-01T05:04:23;13.70;;;5.00;;
3689;SDS011;1861;50.240;8.596;2023-01-01T05:06:53;10.17;;;6.10;;
3689;SDS011;1861;50.240;8.596;2023-01-01T05:09:21;9.77;;;5.50;;
3689;SDS011;1861;50.240;8.596;2023-01-01T05:11:49;10.73;;;5.70;;
3689;SDS011;1861;50.240;8.596;2023-01-01T05:14:17;9.63;;;6.47;;
3689;SDS011;1861;50.240;8.596;2023-01-01T05:16:45;13.40;;;7.50;;
3689;SDS011;1861;50.240;8.596;2023-01-01T05:19:13;13.10;;;7.30;;
3689;SDS011;1861;50.240;8.596;2023-01-01T05:21:41;11.93;;;7.73;;
3689;SDS011;1861;50.240;8.596;2023-01-01T05:24:12;15.00;;;7.40;;
3689;SDS011;1861;50.240;8.596;2023-01-01T05:26:42;13.20;;;7.40;;
3689;SDS011;1861;50.240;8.596;2023-01-01T05:29:10;16.23;;;7.27;;
3689;SDS011;1861;50.240;8.596;2023-01-01T05:31:42;14.27;;;8.10;;
3689;SDS011;1861;50.240;8.596;2023-01-01T05:34:11;11.50;;;6.67;;
3689;SDS011;1861;50.240;8.596;2023-01-01T05:36:40;12.57;;;7.07;;
3689;SDS011;1861;50.240;8.596;2023-01-01T05:39:10;11.10;;;6.70;;
3689;SDS011;1861;50.240;8.596;2023-01-01T05:41:39;12.20;;;6.53;;
3689;SDS011;1861;50.240;8.596;2023-01-01T05:44:08;14.27;;;6.80;;
3689;SDS011;1861;50.240;8.596;2023-01-01T05:46:37;13.77;;;6.40;;
3689;SDS011;1861;50.240;8.596;2023-01-01T05:49:05;10.60;;;6.30;;
3689;SDS011;1861;50.240;8.596;2023-01-01T05:51:37;13.90;;;7.40;;
3689;SDS011;1861;50.240;8.596;2023-01-01T05:54:04;13.17;;;6.87;;
3689;SDS011;1861;50.240;8.596;2023-01-01T05:56:34;15.10;;;7.80;;
3689;SDS011;1861;50.240;8.596;2023-01-01T05:59:02;12.77;;;6.50;;
3689;SDS011;1861;50.240;8.596;2023-01-01T06:01:30;11.73;;;7.40;;
3689;SDS011;1861;50.240;8.596;2023-01-01T06:04:07;12.07;;;6.73;;
3689;SDS011;1861;50.240;8.596;2023-01-01T06:06:35;11.80;;;6.93;;
3689;SDS011;1861;50.240;8.596;2023-01-01T06:09:04;14.30;;;7.70;;
3689;SDS011;1861;50.240;8.596;2023-01-01T06:11:33;13.10;;;6.97;;
3689;SDS011;1861;50.240;8.596;2023-01-01T06:14:01;16.97;;;9.13;;
3689;SDS011;1861;50.240;8.596;2023-01-01T06:16:30;12.73;;;8.20;;
3689;SDS011;1861;50.240;8.596;2023-01-01T06:18:58;18.77;;;9.87;;
3689;SDS011;1861;50.240;8.596;2023-01-01T06:21:27;19.80;;;9.60;;
3689;SDS011;1861;50.240;8.596;2023-01-01T06:23:56;17.23;;;9.37;;
3689;SDS011;1861;50.240;8.596;2023-01-01T06:26:26;17.80;;;9.30;;
3689;SDS011;1861;50.240;8.596;2023-01-01T06:28:57;17.47;;;9.50;;
3689;SDS011;1861;50.240;8.596;2023-01-01T06:31:26;16.37;;;9.60;;
3689;SDS011;1861;50.240;8.596;2023-01-01T06:34:00;23.50;;;10.37;;
3689;SDS011;1861;50.240;8.596;2023-01-01T06:36:29;20.47;;;9.90;;
3689;SDS011;1861;50.240;8.596;2023-01-01T06:38:57;19.27;;;10.60;;
3689;SDS011;1861;50.240;8.596;2023-01-01T06:41:26;23.10;;;9.77;;
3689;SDS011;1861;50.240;8.596;2023-01-01T06:43:57;19.47;;;9.37;;
3689;SDS011;1861;50.240;8.596;2023-01-01T06:46:27;16.17;;;9.10;;
3689;SDS011;1861;50.240;8.596;2023-01-01T06:48:58;14.50;;;8.43;;
3689;SDS011;1861;50.240;8.596;2023-01-01T06:51:27;16.50;;;8.80;;
3689;SDS011;1861;50.240;8.596;2023-01-01T06:53:57;14.90;;;8.90;;
3689;SDS011;1861;50.240;8.596;2023-01-01T06:56:26;16.30;;;8.97;;
3689;SDS011;1861;50.240;8.596;2023-01-01T06:58:54;15.60;;;9.10;;
3689;SDS011;1861;50.240;8.596;2023-01-01T07:01:25;17.33;;;9.40;;
3689;SDS011;1861;50.240;8.596;2023-01-01T07:03:55;16.93;;;8.60;;
3689;SDS011;1861;50.240;8.596;2023-01-01T07:06:25;18.80;;;8.10;;
3689;SDS011;1861;50.240;8.596;2023-01-01T07:08:53;18.30;;;7.60;;
3689;SDS011;1861;50.240;8.596;2023-01-01T07:11:21;11.90;;;6.97;;
3689;SDS011;1861;50.240;8.596;2023-01-01T07:13:50;14.00;;;7.57;;
3689;SDS011;1861;50.240;8.596;2023-01-01T07:16:18;10.07;;;6.30;;
3689;SDS011;1861;50.240;8.596;2023-01-01T07:18:48;10.77;;;5.70;;
3689;SDS011;1861;50.240;8.596;2023-01-01T07:21:21;6.90;;;5.17;;
3689;SDS011;1861;50.240;8.596;2023-01-01T07:23:55;8.70;;;5.63;;
3689;SDS011;1861;50.240;8.596;2023-01-01T07:26:24;8.00;;;4.50;;
3689;SDS011;1861;50.240;8.596;2023-01-01T07:28:53;5.63;;;3.30;;
3689;SDS011;1861;50.240;8.596;2023-01-01T07:31:31;8.53;;;3.63;;
3689;SDS011;1861;50.240;8.596;2023-01-01T07:34:01;4.17;;;2.73;;
3689;SDS011;1861;50.240;8.596;2023-01-01T07:36:29;6.40;;;4.60;;
3689;SDS011;1861;50.240;8.596;2023-01-01T07:38:57;4.37;;;3.27;;
3689;SDS011;1861;50.240;8.596;2023-01-01T07:41:25;8.03;;;3.53;;
3689;SDS011;1861;50.240;8.596;2023-01-01T07:43:53;4.33;;;3.10;;
3689;SDS011;1861;50.240;8.596;2023-01-01T07:46:21;5.23;;;3.20;;
3689;SDS011;1861;50.240;8.596;2023-01-01T07:48:49;6.20;;;2.97;;
3689;SDS011;1861;50.240;8.596;2023-01-01T07:51:18;6.23;;;3.40;;
3689;SDS011;1861;50.240;8.596;2023-01-01T07:53:46;6.10;;;3.77;;
3689;SDS011;1861;50.240;8.596;2023-01-01T07:56:14;5.17;;;3.10;;
3689;SDS011;1861;50.240;8.596;2023-01-01T07:58:42;8.27;;;3.37;;
3689;SDS011;1861;50.240;8.596;2023-01-01T08:01:11;3.60;;;2.70;;
3689;SDS011;1861;50.240;8.596;2023-01-01T08:03:40;7.40;;;3.00;;
3689;SDS011;1861;50.240;8.596;2023-01-01T08:06:08;2.50;;;2.27;;
3689;SDS011;1861;50.240;8.596;2023-01-01T08:08:39;7.97;;;3.07;;
3689;SDS011;1861;50.240;8.596;2023-01-01T08:11:08;5.03;;;2.50;;
3689;SDS011;1861;50.240;8.596;2023-01-01T08:13:36;7.10;;;3.20;;
3689;SDS011;1861;50.240;8.596;2023-01-01T08:16:04;5.50;;;3.10;;
3689;SDS011;1861;50.240;8.596;2023-01-01T08:18:32;4.80;;;3.47;;
3689;SDS011;1861;50.240;8.596;2023-01-01T08:21:00;5.10;;;3.40;;
3689;SDS011;1861;50.240;8.596;2023-01-01T08:23:29;5.03;;;3.20;;
3689;SDS011;1861;50.240;8.596;2023-01-01T08:25:58;5.47;;;3.67;;
3689;SDS011;1861;50.240;8.596;2023-01-01T08:28:27;5.00;;;2.90;;
3689;SDS011;1861;50.240;8.596;2023-01-01T08:30:56;7.30;;;2.70;;
3689;SDS011;1861;50.240;8.596;2023-01-01T08:33:27;4.10;;;3.00;;
3689;SDS011;1861;50.240;8.596;2023-01-01T08:35:55;4.63;;;2.67;;
3689;SDS011;1861;50.240;8.596;2023-01-01T08:38:24;9.90;;;3.20;;
3689;SDS011;1861;50.240;8.596;2023-01-01T08:40:52;7.37;;;2.83;;
3689;SDS011;1861;50.240;8.596;2023-01-01T08:43:24;5.23;;;2.87;;
3689;SDS011;1861;50.240;8.596;2023-01-01T08:45:52;4.50;;;2.70;;
3689;SDS011;1861;50.240;8.596;2023-01-01T08:48:21;6.40;;;2.50;;
3689;SDS011;1861;50.240;8.596;2023-01-01T08:50:56;4.90;;;2.30;;
3689;SDS011;1861;50.240;8.596;2023-01-01T08:53:26;3.73;;;2.03;;
3689;SDS011;1861;50.240;8.596;2023-01-01T08:55:55;3.20;;;2.10;;
3689;SDS011;1861;50.240;8.596;2023-01-01T08:58:25;3.57;;;2.20;;
3689;SDS011;1861;50.240;8.596;2023-01-01T09:00:53;6.10;;;2.73;;
3689;SDS011;1861;50.240;8.596;2023-01-01T09:03:22;4.63;;;2.33;;
3689;SDS011;1861;50.240;8.596;2023-01-01T09:05:51;4.10;;;2.10;;
3689;SDS011;1861;50.240;8.596;2023-01-01T09:08:21;7.20;;;2.80;;
3689;SDS011;1861;50.240;8.596;2023-01-01T09:10:49;5.63;;;4.80;;
3689;SDS011;1861;50.240;8.596;2023-01-01T09:13:18;4.17;;;2.23;;
3689;SDS011;1861;50.240;8.596;2023-01-01T09:15:49;2.77;;;2.37;;
3689;SDS011;1861;50.240;8.596;2023-01-01T09:18:17;2.47;;;2.13;;
3689;SDS011;1861;50.240;8.596;2023-01-01T09:20:45;3.40;;;2.07;;
3689;SDS011;1861;50.240;8.596;2023-01-01T09:23:13;5.60;;;2.20;;
3689;SDS011;1861;50.240;8.596;2023-01-01T09:25:42;5.77;;;2.20;;
3689;SDS011;1861;50.240;8.596;2023-01-01T09:28:10;3.73;;;2.40;;
3689;SDS011;1861;50.240;8.596;2023-01-01T09:30:39;5.07;;;2.40;;
3689;SDS011;1861;50.240;8.596;2023-01-01T09:33:09;5.00;;;2.10;;
3689;SDS011;1861;50.240;8.596;2023-01-01T09:35:37;3.30;;;1.80;;
3689;SDS011;1861;50.240;8.596;2023-01-01T09:38:09;6.27;;;2.30;;
3689;SDS011;1861;50.240;8.596;2023-01-01T09:40:41;3.50;;;1.60;;
3689;SDS011;1861;50.240;8.596;2023-01-01T09:43:19;6.43;;;2.20;;
3689;SDS011;1861;50.240;8.596;2023-01-01T09:45:57;3.43;;;1.80;;
3689;SDS011;1861;50.240;8.596;2023-01-01T09:48:29;2.03;;;1.67;;
3689;SDS011;1861;50.240;8.596;2023-01-01T09:50:58;4.80;;;1.60;;
3689;SDS011;1861;50.240;8.596;2023-01-01T09:53:30;3.33;;;1.80;;
3689;SDS011;1861;50.240;8.596;2023-01-01T09:56:01;3.13;;;1.90;;
3689;SDS011;1861;50.240;8.596;2023-01-01T09:58:32;5.70;;;2.10;;
3689;SDS011;1861;50.240;8.596;2023-01-01T10:01:04;2.30;;;1.80;;
3689;SDS011;1861;50.240;8.596;2023-01-01T10:03:40;2.00;;;1.80;;
3689;SDS011;1861;50.240;8.596;2023-01-01T10:06:20;3.80;;;2.00;;
3689;SDS011;1861;50.240;8.596;2023-01-01T10:08:55;1.67;;;1.57;;
3689;SDS011;1861;50.240;8.596;2023-01-01T10:11:30;8.93;;;3.27;;
3689;SDS011;1861;50.240;8.596;2023-01-01T10:14:12;3.47;;;1.70;;
3689;SDS011;1861;50.240;8.596;2023-01-01T10:16:47;3.90;;;2.63;;
3689;SDS011;1861;50.240;8.596;2023-01-01T10:19:23;5.20;;;1.70;;
3689;SDS011;1861;50.240;8.596;2023-01-01T10:21:58;4.97;;;1.97;;
3689;SDS011;1861;50.240;8.596;2023-01-01T10:24:37;8.43;;;2.13;;
3689;SDS011;1861;50.240;8.596;2023-01-01T10:27:16;3.43;;;1.87;;
3689;SDS011;1861;50.240;8.596;2023-01-01T10:29:52;3.40;;;1.70;;
3689;SDS011;1861;50.240;8.596;2023-01-01T10:32:30;6.10;;;1.67;;
3689;SDS011;1861;50.240;8.596;2023-01-01T10:35:01;4.20;;;2.00;;
3689;SDS011;1861;50.240;8.596;2023-01-01T10:37:34;3.97;;;1.60;;
3689;SDS011;1861;50.240;8.596;2023-01-01T10:40:05;5.00;;;1.83;;
3689;SDS011;1861;50.240;8.596;2023-01-01T10:42:40;4.13;;;2.13;;
3689;SDS011;1861;50.240;8.596;2023-01-01T10:45:10;6.40;;;2.20;;
3689;SDS011;1861;50.240;8.596;2023-01-01T10:47:40;5.33;;;2.17;;
3689;SDS011;1861;50.240;8.596;2023-01-01T10:50:41;6.95;;;2.35;;
3689;SDS011;1861;50.240;8.596;2023-01-01T10:53:18;8.25;;;2.03;;
3689;SDS011;1861;50.240;8.596;2023-01-01T10:55:50;4.17;;;2.40;;
3689;SDS011;1861;50.240;8.596;2023-01-01T10:58:26;4.70;;;2.50;;
3689;SDS011;1861;50.240;8.596;2023-01-01T11:01:02;3.13;;;1.77;;
3689;SDS011;1861;50.240;8.596;2023-01-01T11:03:32;3.57;;;1.50;;
3689;SDS011;1861;50.240;8.596;2023-01-01T11:06:03;2.50;;;1.80;;
3689;SDS011;1861;50.240;8.596;2023-01-01T11:08:46;12.67;;;2.10;;
3689;SDS011;1861;50.240;8.596;2023-01-01T11:11:20;4.63;;;2.20;;
3689;SDS011;1861;50.240;8.596;2023-01-01T11:13:52;3.57;;;1.67;;
3689;SDS011;1861;50.240;8.596;2023-01-01T11:16:22;3.30;;;1.73;;
3689;SDS011;1861;50.240;8.596;2023-01-01T11:18:51;7.23;;;2.30;;
3689;SDS011;1861;50.240;8.596;2023-01-01T11:21:29;6.77;;;1.83;;
3689;SDS011;1861;50.240;8.596;2023-01-01T11:24:17;3.43;;;1.73;;
3689;SDS011;1861;50.240;8.596;2023-01-01T11:26:49;3.40;;;1.40;;
3689;SDS011;1861;50.240;8.596;2023-01-01T11:29:25;2.53;;;1.70;;
3689;SDS011;1861;50.240;8.596;2023-01-01T11:31:54;4.33;;;1.90;;
3689;SDS011;1861;50.240;8.596;2023-01-01T11:34:30;5.40;;;2.30;;
3689;SDS011;1861;50.240;8.596;2023-01-01T11:37:14;5.97;;;2.37;;
3689;SDS011;1861;50.240;8.596;2023-01-01T11:39:46;3.40;;;2.00;;
3689;SDS011;1861;50.240;8.596;2023-01-01T11:42:18;2.63;;;1.70;;
3689;SDS011;1861;50.240;8.596;2023-01-01T11:44:47;4.77;;;2.17;;
3689;SDS011;1861;50.240;8.596;2023-01-01T11:47:20;2.10;;;1.77;;
3689;SDS011;1861;50.240;8.596;2023-01-01T11:49:52;5.73;;;1.80;;
3689;SDS011;1861;50.240;8.596;2023-01-01T11:52:28;6.07;;;2.20;;
3689;SDS011;1861;50.240;8.596;2023-01-01T11:55:02;3.40;;;1.87;;
3689;SDS011;1861;50.240;8.596;2023-01-01T11:57:43;4.30;;;1.97;;
3689;SDS011;1861;50.240;8.596;2023-01-01T12:00:18;4.07;;;1.67;;
3689;SDS011;1861;50.240;8.596;2023-01-01T12:02:47;9.10;;;2.87;;
3689;SDS011;1861;50.240;8.596;2023-01-01T12:05:21;2.70;;;1.87;;
3689;SDS011;1861;50.240;8.596;2023-01-01T12:07:53;4.43;;;2.10;;
3689;SDS011;1861;50.240;8.596;2023-01-01T12:10:25;2.90;;;1.50;;
3689;SDS011;1861;50.240;8.596;2023-01-01T12:12:57;9.30;;;1.80;;
3689;SDS011;1861;50.240;8.596;2023-01-01T12:15:30;6.87;;;2.30;;
3689;SDS011;1861;50.240;8.596;2023-01-01T12:18:03;7.30;;;1.90;;
3689;SDS011;1861;50.240;8.596;2023-01-01T12:20:41;6.97;;;1.90;;
3689;SDS011;1861;50.240;8.596;2023-01-01T12:23:13;3.67;;;2.10;;
3689;SDS011;1861;50.240;8.596;2023-01-01T12:25:43;4.20;;;1.80;;
3689;SDS011;1861;50.240;8.596;2023-01-01T12:28:19;2.73;;;1.80;;
3689;SDS011;1861;50.240;8.596;2023-01-01T12:30:55;8.77;;;2.07;;
3689;SDS011;1861;50.240;8.596;2023-01-01T12:33:33;6.77;;;1.77;;
3689;SDS011;1861;50.240;8.596;2023-01-01T12:36:09;5.53;;;2.70;;
3689;SDS011;1861;50.240;8.596;2023-01-01T12:41:51;2.40;;;1.73;;
3689;SDS011;1861;50.240;8.596;2023-01-01T12:44:28;5.70;;;1.90;;
3689;SDS011;1861;50.240;8.596;2023-01-01T12:47:07;3.40;;;1.60;;
3689;SDS011;1861;50.240;8.596;2023-01-01T12:49:49;7.67;;;2.33;;
3689;SDS011;1861;50.240;8.596;2023-01-01T12:52:32;2.87;;;1.70;;
3689;SDS011;1861;50.240;8.596;2023-01-01T12:55:18;5.50;;;1.83;;
3689;SDS011;1861;50.240;8.596;2023-01-01T12:58:04;5.80;;;1.97;;
3689;SDS011;1861;50.240;8.596;2023-01-01T13:00:37;3.53;;;1.97;;
3689;SDS011;1861;50.240;8.596;2023-01-01T13:03:10;10.90;;;1.50;;
3689;SDS011;1861;50.240;8.596;2023-01-01T13:05:46;4.73;;;2.20;;
3689;SDS011;1861;50.240;8.596;2023-01-01T13:08:16;4.37;;;2.00;;
3689;SDS011;1861;50.240;8.596;2023-01-01T13:10:45;6.87;;;2.00;;
3689;SDS011;1861;50.240;8.596;2023-01-01T13:13:17;3.63;;;1.80;;
3689;SDS011;1861;50.240;8.596;2023-01-01T13:15:47;3.10;;;1.50;;
3689;SDS011;1861;50.240;8.596;2023-01-01T13:18:28;3.87;;;2.77;;
3689;SDS011;1861;50.240;8.596;2023-01-01T13:21:06;3.40;;;1.53;;
3689;SDS011;1861;50.240;8.596;2023-01-01T13:23:48;3.40;;;2.10;;
3689;SDS011;1861;50.240;8.596;2023-01-01T13:31:59;5.60;;;1.50;;
3689;SDS011;1861;50.240;8.596;2023-01-01T13:37:40;4.60;;;2.20;;
3689;SDS011;1861;50.240;8.596;2023-01-01T13:43:20;4.37;;;1.80;;
3689;SDS011;1861;50.240;8.596;2023-01-01T13:45:58;4.00;;;1.80;;
3689;SDS011;1861;50.240;8.596;2023-01-01T13:48:59;7.07;;;1.97;;
3689;SDS011;1861;50.240;8.596;2023-01-01T13:58:22;7.47;;;2.27;;
3689;SDS011;1861;50.240;8.596;2023-01-01T14:01:14;7.57;;;2.17;;
3689;SDS011;1861;50.240;8.596;2023-01-01T14:03:52;7.13;;;2.50;;
3689;SDS011;1861;50.240;8.596;2023-01-01T14:06:24;4.87;;;2.13;;
3689;SDS011;1861;50.240;8.596;2023-01-01T14:08:59;5.80;;;2.40;;
3689;SDS011;1861;50.240;8.596;2023-01-01T14:11:29;9.57;;;1.93;;
3689;SDS011;1861;50.240;8.596;2023-01-01T14:13:57;8.23;;;2.40;;
3689;SDS011;1861;50.240;8.596;2023-01-01T14:16:26;7.37;;;2.43;;
3689;SDS011;1861;50.240;8.596;2023-01-01T14:18:57;11.33;;;3.17;;
3689;SDS011;1861;50.240;8.596;2023-01-01T14:21:29;10.23;;;2.23;;
3689;SDS011;1861;50.240;8.596;2023-01-01T14:23:59;2.67;;;1.60;;
3689;SDS011;1861;50.240;8.596;2023-01-01T14:26:30;7.20;;;2.07;;
3689;SDS011;1861;50.240;8.596;2023-01-01T14:29:00;3.93;;;2.00;;
3689;SDS011;1861;50.240;8.596;2023-01-01T14:31:35;11.83;;;2.30;;
3689;SDS011;1861;50.240;8.596;2023-01-01T14:34:12;8.70;;;2.17;;
3689;SDS011;1861;50.240;8.596;2023-01-01T14:36:48;12.33;;;1.80;;
3689;SDS011;1861;50.240;8.596;2023-01-01T14:39:22;11.80;;;2.90;;
3689;SDS011;1861;50.240;8.596;2023-01-01T14:41:54;6.03;;;2.17;;
3689;SDS011;1861;50.240;8.596;2023-01-01T14:44:26;8.27;;;2.30;;
3689;SDS011;1861;50.240;8.596;2023-01-01T14:47:00;13.93;;;2.60;;
3689;SDS011;1861;50.240;8.596;2023-01-01T14:49:31;12.77;;;3.40;;
3689;SDS011;1861;50.240;8.596;2023-01-01T14:52:01;5.50;;;2.20;;
3689;SDS011;1861;50.240;8.596;2023-01-01T14:54:34;6.43;;;2.47;;
3689;SDS011;1861;50.240;8.596;2023-01-01T14:57:08;6.07;;;2.03;;
3689;SDS011;1861;50.240;8.596;2023-01-01T14:59:44;5.70;;;2.47;;
3689;SDS011;1861;50.240;8.596;2023-01-01T15:02:16;7.30;;;2.40;;
3689;SDS011;1861;50.240;8.596;2023-01-01T15:04:47;4.80;;;2.17;;
3689;SDS011;1861;50.240;8.596;2023-01-01T15:07:18;8.70;;;2.20;;
3689;SDS011;1861;50.240;8.596;2023-01-01T15:09:48;5.33;;;2.03;;
3689;SDS011;1861;50.240;8.596;2023-01-01T15:12:19;7.23;;;2.60;;
3689;SDS011;1861;50.240;8.596;2023-01-01T15:14:50;6.13;;;1.93;;
3689;SDS011;1861;50.240;8.596;2023-01-01T15:17:22;2.37;;;2.17;;
3689;SDS011;1861;50.240;8.596;2023-01-01T15:20:01;5.77;;;2.00;;
3689;SDS011;1861;50.240;8.596;2023-01-01T15:22:31;4.53;;;1.83;;
3689;SDS011;1861;50.240;8.596;2023-01-01T15:25:01;3.90;;;2.20;;
3689;SDS011;1861;50.240;8.596;2023-01-01T15:27:30;4.90;;;1.90;;
3689;SDS011;1861;50.240;8.596;2023-01-01T15:30:02;4.77;;;1.90;;
3689;SDS011;1861;50.240;8.596;2023-01-01T15:32:40;10.50;;;2.70;;
3689;SDS011;1861;50.240;8.596;2023-01-01T15:35:17;5.70;;;3.10;;
3689;SDS011;1861;50.240;8.596;2023-01-01T15:37:56;10.80;;;3.20;;
3689;SDS011;1861;50.240;8.596;2023-01-01T15:40:31;6.90;;;2.50;;
3689;SDS011;1861;50.240;8.596;2023-01-01T15:43:08;6.70;;;3.90;;
3689;SDS011;1861;50.240;8.596;2023-01-01T15:45:40;10.67;;;2.70;;
3689;SDS011;1861;50.240;8.596;2023-01-01T15:48:19;7.47;;;2.20;;
3689;SDS011;1861;50.240;8.596;2023-01-01T15:56:31;6.70;;;2.47;;
3689;SDS011;1861;50.240;8.596;2023-01-01T15:59:01;4.80;;;2.13;;
3689;SDS011;1861;50.240;8.596;2023-01-01T16:01:36;6.67;;;2.23;;
3689;SDS011;1861;50.240;8.596;2023-01-01T16:04:08;5.53;;;2.07;;
3689;SDS011;1861;50.240;8.596;2023-01-01T16:06:41;5.10;;;2.60;;
3689;SDS011;1861;50.240;8.596;2023-01-01T16:09:11;10.87;;;3.40;;